sensor_id;sensor_type;location;lat;lon;timestamp;P1;durP1;ratioP1;P2;durP2;ratioP2
73938;SDS011;62291;47.554;8.504;2024-01-07T00:02:14;24.23;;;14.75;;
73938;SDS011;62291;47.554;8.504;2024-01-07T00:04:39;26.58;;;15.15;;
73938;SDS011;62291;47.554;8.504;2024-01-07T00:07:05;20.42;;;14.05;;
73938;SDS011;62291;47.554;8.504;2024-01-07T00:09:31;23.80;;;14.98;;
73938;SDS011;62291;47.554;8.504;2024-01-07T00:11:57;20.45;;;13.90;;
73938;SDS011;62291;47.554;8.504;2024-01-07T00:14:22;19.85;;;13.23;;
73938;SDS011;62291;47.554;8.504;2024-01-07T00:16:48;21.52;;;14.43;;
73938;SDS011;62291;47.554;8.504;2024-01-07T00:19:15;17.38;;;12.38;;
73938;SDS011;62291;47.554;8.504;2024-01-07T00:21:40;20.00;;;13.20;;
73938;SDS011;62291;47.554;8.504;2024-01-07T00:24:06;22.33;;;12.98;;
73938;SDS011;62291;47.554;8.504;2024-01-07T00:26:32;23.63;;;14.68;;
73938;SDS011;62291;47.554;8.504;2024-01-07T00:28:57;24.40;;;15.65;;
73938;SDS011;62291;47.554;8.504;2024-01-07T00:31:24;6.93;;;4.63;;
73938;SDS011;62291;47.554;8.504;2024-01-07T00:33:50;7.65;;;4.63;;
73938;SDS011;62291;47.554;8.504;2024-01-07T00:36:15;6.93;;;4.75;;
73938;SDS011;62291;47.554;8.504;2024-01-07T00:38:41;7.07;;;4.78;;
73938;SDS011;62291;47.554;8.504;2024-01-07T00:41:07;6.35;;;4.90;;
73938;SDS011;62291;47.554;8.504;2024-01-07T00:43:32;6.22;;;4.88;;
73938;SDS011;62291;47.554;8.504;2024-01-07T00:45:58;6.38;;;4.60;;
73938;SDS011;62291;47.554;8.504;2024-01-07T00:48:24;7.78;;;4.57;;
73938;SDS011;62291;47.554;8.504;2024-01-07T00:50:49;6.55;;;4.28;;
73938;SDS011;62291;47.554;8.504;2024-01-07T00:53:15;5.93;;;3.80;;
73938;SDS011;62291;47.554;8.504;2024-01-07T00:55:41;6.10;;;4.32;;
73938;SDS011;62291;47.554;8.504;2024-01-07T00:58:06;5.65;;;4.22;;
73938;SDS011;62291;47.554;8.504;2024-01-07T01:00:32;6.30;;;5.00;;
73938;SDS011;62291;47.554;8.504;2024-01-07T01:02:58;7.28;;;5.25;;
73938;SDS011;62291;47.554;8.504;2024-01-07T01:05:23;6.40;;;5.00;;
73938;SDS011;62291;47.554;8.504;2024-01-07T01:07:49;6.00;;;4.68;;
73938;SDS011;62291;47.554;8.504;2024-01-07T01:10:15;6.70;;;5.00;;
73938;SDS011;62291;47.554;8.504;2024-01-07T01:12:42;7.15;;;5.13;;
73938;SDS011;62291;47.554;8.504;2024-01-07T01:15:08;7.22;;;5.70;;
73938;SDS011;62291;47.554;8.504;2024-01-07T01:17:34;7.93;;;6.40;;
73938;SDS011;62291;47.554;8.504;2024-01-07T01:20:00;7.35;;;5.70;;
73938;SDS011;62291;47.554;8.504;2024-01-07T01:22:26;8.77;;;6.72;;
73938;SDS011;62291;47.554;8.504;2024-01-07T01:24:51;7.72;;;6.20;;
73938;SDS011;62291;47.554;8.504;2024-01-07T01:27:18;9.32;;;7.40;;
73938;SDS011;62291;47.554;8.504;2024-01-07T01:29:44;10.57;;;7.82;;
73938;SDS011;62291;47.554;8.504;2024-01-07T01:32:10;10.02;;;6.75;;
73938;SDS011;62291;47.554;8.504;2024-01-07T01:34:36;9.93;;;7.25;;
73938;SDS011;62291;47.554;8.504;2024-01-07T01:37:01;10.07;;;7.40;;
73938;SDS011;62291;47.554;8.504;2024-01-07T01:39:28;9.02;;;7.15;;
73938;SDS011;62291;47.554;8.504;2024-01-07T01:41:54;9.45;;;7.20;;
73938;SDS011;62291;47.554;8.504;2024-01-07T01:44:20;9.80;;;6.85;;
73938;SDS011;62291;47.554;8.504;2024-01-07T01:46:46;8.68;;;6.53;;
73938;SDS011;62291;47.554;8.504;2024-01-07T01:49:12;9.10;;;6.60;;
73938;SDS011;62291;47.554;8.504;2024-01-07T01:51:38;9.30;;;7.13;;
73938;SDS011;62291;47.554;8.504;2024-01-07T01:54:06;7.72;;;5.60;;
73938;SDS011;62291;47.554;8.504;2024-01-07T01:56:32;8.00;;;5.75;;
73938;SDS011;62291;47.554;8.504;2024-01-07T01:58:58;7.75;;;5.80;;
73938;SDS011;62291;47.554;8.504;2024-01-07T02:01:24;7.07;;;5.10;;
73938;SDS011;62291;47.554;8.504;2024-01-07T02:03:50;8.07;;;5.72;;
73938;SDS011;62291;47.554;8.504;2024-01-07T02:06:19;6.22;;;4.72;;
73938;SDS011;62291;47.554;8.504;2024-01-07T02:08:46;6.57;;;5.18;;
73938;SDS011;62291;47.554;8.504;2024-01-07T02:11:17;7.00;;;6.18;;
73938;SDS011;62291;47.554;8.504;2024-01-07T02:13:43;8.70;;;6.70;;
73938;SDS011;62291;47.554;8.504;2024-01-07T02:16:09;8.55;;;6.13;;
73938;SDS011;62291;47.554;8.504;2024-01-07T02:18:35;7.95;;;6.55;;
73938;SDS011;62291;47.554;8.504;2024-01-07T02:21:03;9.18;;;6.70;;
73938;SDS011;62291;47.554;8.504;2024-01-07T02:23:29;8.30;;;6.95;;
73938;SDS011;62291;47.554;8.504;2024-01-07T02:25:54;8.88;;;6.43;;
73938;SDS011;62291;47.554;8.504;2024-01-07T02:28:20;9.63;;;7.50;;
73938;SDS011;62291;47.554;8.504;2024-01-07T02:30:45;9.55;;;7.60;;
73938;SDS011;62291;47.554;8.504;2024-01-07T02:33:11;10.48;;;8.02;;
73938;SDS011;62291;47.554;8.504;2024-01-07T02:35:37;10.75;;;8.35;;
73938;SDS011;62291;47.554;8.504;2024-01-07T02:38:02;9.80;;;8.07;;
73938;SDS011;62291;47.554;8.504;2024-01-07T02:40:28;8.40;;;6.63;;
73938;SDS011;62291;47.554;8.504;2024-01-07T02:42:54;7.78;;;6.22;;
73938;SDS011;62291;47.554;8.504;2024-01-07T02:45:21;9.57;;;7.25;;
73938;SDS011;62291;47.554;8.504;2024-01-07T02:47:47;8.32;;;6.57;;
73938;SDS011;62291;47.554;8.504;2024-01-07T02:50:13;10.80;;;7.60;;
73938;SDS011;62291;47.554;8.504;2024-01-07T02:52:39;8.40;;;6.47;;
73938;SDS011;62291;47.554;8.504;2024-01-07T02:55:04;9.80;;;7.45;;
73938;SDS011;62291;47.554;8.504;2024-01-07T02:57:30;10.63;;;8.02;;
73938;SDS011;62291;47.554;8.504;2024-01-07T02:59:56;11.82;;;8.60;;
73938;SDS011;62291;47.554;8.504;2024-01-07T03:02:21;9.25;;;7.68;;
73938;SDS011;62291;47.554;8.504;2024-01-07T03:04:47;10.82;;;7.70;;
73938;SDS011;62291;47.554;8.504;2024-01-07T03:07:13;10.68;;;8.30;;
73938;SDS011;62291;47.554;8.504;2024-01-07T03:09:39;10.63;;;8.50;;
73938;SDS011;62291;47.554;8.504;2024-01-07T03:12:04;11.85;;;8.88;;
73938;SDS011;62291;47.554;8.504;2024-01-07T03:14:30;13.60;;;9.23;;
73938;SDS011;62291;47.554;8.504;2024-01-07T03:16:56;10.73;;;8.52;;
73938;SDS011;62291;47.554;8.504;2024-01-07T03:19:21;12.00;;;8.80;;
73938;SDS011;62291;47.554;8.504;2024-01-07T03:21:48;13.45;;;9.30;;
73938;SDS011;62291;47.554;8.504;2024-01-07T03:24:14;11.13;;;8.45;;
73938;SDS011;62291;47.554;8.504;2024-01-07T03:26:39;10.57;;;8.23;;
73938;SDS011;62291;47.554;8.504;2024-01-07T03:29:05;11.90;;;8.98;;
73938;SDS011;62291;47.554;8.504;2024-01-07T03:31:31;11.05;;;8.40;;
73938;SDS011;62291;47.554;8.504;2024-01-07T03:33:57;11.15;;;8.70;;
73938;SDS011;62291;47.554;8.504;2024-01-07T03:36:22;11.90;;;8.73;;
73938;SDS011;62291;47.554;8.504;2024-01-07T03:38:48;11.88;;;9.38;;
73938;SDS011;62291;47.554;8.504;2024-01-07T03:41:17;11.20;;;8.68;;
73938;SDS011;62291;47.554;8.504;2024-01-07T03:43:44;11.57;;;8.85;;
73938;SDS011;62291;47.554;8.504;2024-01-07T03:46:13;11.27;;;9.20;;
73938;SDS011;62291;47.554;8.504;2024-01-07T03:48:43;13.05;;;9.68;;
73938;SDS011;62291;47.554;8.504;2024-01-07T03:51:09;11.27;;;8.63;;
73938;SDS011;62291;47.554;8.504;2024-01-07T03:53:34;11.85;;;8.60;;
73938;SDS011;62291;47.554;8.504;2024-01-07T03:56:00;12.55;;;9.02;;
73938;SDS011;62291;47.554;8.504;2024-01-07T03:58:26;11.30;;;8.52;;
73938;SDS011;62291;47.554;8.504;2024-01-07T04:00:51;10.88;;;8.38;;
73938;SDS011;62291;47.554;8.504;2024-01-07T04:03:17;11.90;;;8.70;;
73938;SDS011;62291;47.554;8.504;2024-01-07T04:05:43;10.95;;;8.52;;
73938;SDS011;62291;47.554;8.504;2024-01-07T04:08:10;11.43;;;8.77;;
73938;SDS011;62291;47.554;8.504;2024-01-07T04:10:37;11.30;;;8.65;;
73938;SDS011;62291;47.554;8.504;2024-01-07T04:13:03;12.52;;;9.18;;
73938;SDS011;62291;47.554;8.504;2024-01-07T04:15:29;12.40;;;8.38;;
73938;SDS011;62291;47.554;8.504;2024-01-07T04:17:55;10.80;;;7.93;;
73938;SDS011;62291;47.554;8.504;2024-01-07T04:20:21;11.55;;;8.00;;
73938;SDS011;62291;47.554;8.504;2024-01-07T04:22:47;12.18;;;8.88;;
73938;SDS011;62291;47.554;8.504;2024-01-07T04:25:13;11.90;;;8.57;;
73938;SDS011;62291;47.554;8.504;2024-01-07T04:27:38;12.45;;;8.75;;
73938;SDS011;62291;47.554;8.504;2024-01-07T04:30:04;11.15;;;8.40;;
73938;SDS011;62291;47.554;8.504;2024-01-07T04:32:31;12.75;;;9.05;;
73938;SDS011;62291;47.554;8.504;2024-01-07T04:34:57;13.50;;;9.35;;
73938;SDS011;62291;47.554;8.504;2024-01-07T04:37:23;12.85;;;8.48;;
73938;SDS011;62291;47.554;8.504;2024-01-07T04:39:49;13.45;;;9.90;;
73938;SDS011;62291;47.554;8.504;2024-01-07T04:42:15;14.02;;;9.95;;
73938;SDS011;62291;47.554;8.504;2024-01-07T04:44:44;14.75;;;9.73;;
73938;SDS011;62291;47.554;8.504;2024-01-07T04:47:25;12.88;;;9.15;;
73938;SDS011;62291;47.554;8.504;2024-01-07T04:49:52;14.35;;;9.35;;
73938;SDS011;62291;47.554;8.504;2024-01-07T04:52:19;12.52;;;9.77;;
73938;SDS011;62291;47.554;8.504;2024-01-07T04:54:44;13.55;;;10.23;;
73938;SDS011;62291;47.554;8.504;2024-01-07T04:57:10;14.15;;;9.90;;
73938;SDS011;62291;47.554;8.504;2024-01-07T04:59:36;19.48;;;13.15;;
73938;SDS011;62291;47.554;8.504;2024-01-07T05:02:02;17.98;;;12.68;;
73938;SDS011;62291;47.554;8.504;2024-01-07T05:04:28;18.25;;;13.13;;
73938;SDS011;62291;47.554;8.504;2024-01-07T05:06:54;15.85;;;11.02;;
73938;SDS011;62291;47.554;8.504;2024-01-07T05:09:19;14.45;;;10.60;;
73938;SDS011;62291;47.554;8.504;2024-01-07T05:11:45;16.20;;;11.38;;
73938;SDS011;62291;47.554;8.504;2024-01-07T05:14:11;17.83;;;12.10;;
73938;SDS011;62291;47.554;8.504;2024-01-07T05:16:36;16.35;;;11.70;;
73938;SDS011;62291;47.554;8.504;2024-01-07T05:19:02;19.13;;;11.77;;
73938;SDS011;62291;47.554;8.504;2024-01-07T05:21:28;16.58;;;10.95;;
73938;SDS011;62291;47.554;8.504;2024-01-07T05:23:54;16.73;;;10.95;;
73938;SDS011;62291;47.554;8.504;2024-01-07T05:26:20;16.98;;;12.32;;
73938;SDS011;62291;47.554;8.504;2024-01-07T05:28:46;17.92;;;12.05;;
73938;SDS011;62291;47.554;8.504;2024-01-07T05:31:15;18.63;;;11.60;;
73938;SDS011;62291;47.554;8.504;2024-01-07T05:33:42;16.42;;;11.38;;
73938;SDS011;62291;47.554;8.504;2024-01-07T05:36:08;16.35;;;10.93;;
73938;SDS011;62291;47.554;8.504;2024-01-07T05:38:34;16.98;;;10.52;;
73938;SDS011;62291;47.554;8.504;2024-01-07T05:41:00;18.10;;;11.85;;
73938;SDS011;62291;47.554;8.504;2024-01-07T05:43:25;20.38;;;11.20;;
73938;SDS011;62291;47.554;8.504;2024-01-07T05:45:51;15.52;;;10.70;;
73938;SDS011;62291;47.554;8.504;2024-01-07T05:48:17;16.20;;;11.15;;
73938;SDS011;62291;47.554;8.504;2024-01-07T05:50:42;17.23;;;11.63;;
73938;SDS011;62291;47.554;8.504;2024-01-07T05:53:08;18.65;;;12.20;;
73938;SDS011;62291;47.554;8.504;2024-01-07T05:55:34;19.25;;;12.18;;
73938;SDS011;62291;47.554;8.504;2024-01-07T05:57:59;16.52;;;11.02;;
73938;SDS011;62291;47.554;8.504;2024-01-07T06:00:25;19.25;;;11.95;;
73938;SDS011;62291;47.554;8.504;2024-01-07T06:02:51;23.23;;;12.77;;
73938;SDS011;62291;47.554;8.504;2024-01-07T06:05:16;16.38;;;10.98;;
73938;SDS011;62291;47.554;8.504;2024-01-07T06:07:42;17.30;;;11.18;;
73938;SDS011;62291;47.554;8.504;2024-01-07T06:10:08;19.70;;;11.93;;
73938;SDS011;62291;47.554;8.504;2024-01-07T06:12:33;17.70;;;11.40;;
73938;SDS011;62291;47.554;8.504;2024-01-07T06:14:59;20.88;;;12.43;;
73938;SDS011;62291;47.554;8.504;2024-01-07T06:17:25;22.95;;;13.10;;
73938;SDS011;62291;47.554;8.504;2024-01-07T06:19:50;23.13;;;13.13;;
73938;SDS011;62291;47.554;8.504;2024-01-07T06:22:16;23.63;;;13.25;;
73938;SDS011;62291;47.554;8.504;2024-01-07T06:24:42;25.40;;;13.68;;
73938;SDS011;62291;47.554;8.504;2024-01-07T06:27:07;19.05;;;12.52;;
73938;SDS011;62291;47.554;8.504;2024-01-07T06:29:33;17.85;;;11.70;;
73938;SDS011;62291;47.554;8.504;2024-01-07T06:31:59;18.88;;;12.00;;
73938;SDS011;62291;47.554;8.504;2024-01-07T06:34:25;20.70;;;12.10;;
73938;SDS011;62291;47.554;8.504;2024-01-07T06:36:50;22.83;;;12.63;;
73938;SDS011;62291;47.554;8.504;2024-01-07T06:39:17;16.05;;;11.02;;
73938;SDS011;62291;47.554;8.504;2024-01-07T06:41:42;17.23;;;11.77;;
73938;SDS011;62291;47.554;8.504;2024-01-07T06:44:08;18.02;;;11.57;;
73938;SDS011;62291;47.554;8.504;2024-01-07T06:46:34;19.25;;;11.52;;
73938;SDS011;62291;47.554;8.504;2024-01-07T06:49:00;19.60;;;12.38;;
73938;SDS011;62291;47.554;8.504;2024-01-07T06:51:26;19.05;;;11.85;;
73938;SDS011;62291;47.554;8.504;2024-01-07T06:53:52;20.20;;;12.05;;
73938;SDS011;62291;47.554;8.504;2024-01-07T06:56:17;21.60;;;11.98;;
73938;SDS011;62291;47.554;8.504;2024-01-07T06:58:43;20.80;;;12.20;;
73938;SDS011;62291;47.554;8.504;2024-01-07T07:01:09;23.42;;;12.82;;
73938;SDS011;62291;47.554;8.504;2024-01-07T07:03:35;20.13;;;11.60;;
73938;SDS011;62291;47.554;8.504;2024-01-07T07:06:00;18.63;;;11.75;;
73938;SDS011;62291;47.554;8.504;2024-01-07T07:08:26;17.77;;;11.50;;
73938;SDS011;62291;47.554;8.504;2024-01-07T07:10:52;18.98;;;11.70;;
73938;SDS011;62291;47.554;8.504;2024-01-07T07:13:17;19.20;;;11.60;;
73938;SDS011;62291;47.554;8.504;2024-01-07T07:15:43;18.48;;;11.77;;
73938;SDS011;62291;47.554;8.504;2024-01-07T07:18:09;20.60;;;11.20;;
73938;SDS011;62291;47.554;8.504;2024-01-07T07:20:34;22.65;;;12.48;;
73938;SDS011;62291;47.554;8.504;2024-01-07T07:23:00;19.65;;;12.23;;
73938;SDS011;62291;47.554;8.504;2024-01-07T07:25:26;19.88;;;12.55;;
73938;SDS011;62291;47.554;8.504;2024-01-07T07:27:51;20.63;;;12.30;;
73938;SDS011;62291;47.554;8.504;2024-01-07T07:30:17;16.20;;;10.93;;
73938;SDS011;62291;47.554;8.504;2024-01-07T07:32:43;19.63;;;12.48;;
73938;SDS011;62291;47.554;8.504;2024-01-07T07:35:09;20.17;;;11.95;;
73938;SDS011;62291;47.554;8.504;2024-01-07T07:37:35;20.30;;;11.93;;
73938;SDS011;62291;47.554;8.504;2024-01-07T07:40:01;21.42;;;12.15;;
73938;SDS011;62291;47.554;8.504;2024-01-07T07:42:27;20.55;;;12.23;;
73938;SDS011;62291;47.554;8.504;2024-01-07T07:44:53;19.38;;;11.63;;
73938;SDS011;62291;47.554;8.504;2024-01-07T07:47:19;16.17;;;10.73;;
73938;SDS011;62291;47.554;8.504;2024-01-07T07:49:45;24.25;;;12.27;;
73938;SDS011;62291;47.554;8.504;2024-01-07T07:52:11;20.13;;;11.80;;
73938;SDS011;62291;47.554;8.504;2024-01-07T07:54:39;16.58;;;10.70;;
73938;SDS011;62291;47.554;8.504;2024-01-07T07:57:05;17.80;;;11.18;;
73938;SDS011;62291;47.554;8.504;2024-01-07T07:59:30;19.13;;;11.60;;
73938;SDS011;62291;47.554;8.504;2024-01-07T08:01:56;19.30;;;12.20;;
73938;SDS011;62291;47.554;8.504;2024-01-07T08:04:22;21.52;;;11.88;;
73938;SDS011;62291;47.554;8.504;2024-01-07T08:06:47;19.48;;;11.80;;
73938;SDS011;62291;47.554;8.504;2024-01-07T08:09:13;18.85;;;11.45;;
73938;SDS011;62291;47.554;8.504;2024-01-07T08:11:39;24.10;;;12.75;;
73938;SDS011;62291;47.554;8.504;2024-01-07T08:14:05;22.02;;;11.88;;
73938;SDS011;62291;47.554;8.504;2024-01-07T08:16:31;23.20;;;13.07;;
73938;SDS011;62291;47.554;8.504;2024-01-07T08:18:57;29.35;;;13.98;;
73938;SDS011;62291;47.554;8.504;2024-01-07T08:21:23;25.50;;;13.73;;
73938;SDS011;62291;47.554;8.504;2024-01-07T08:23:49;23.58;;;12.60;;
73938;SDS011;62291;47.554;8.504;2024-01-07T08:26:19;27.05;;;14.57;;
73938;SDS011;62291;47.554;8.504;2024-01-07T08:28:44;29.58;;;14.40;;
73938;SDS011;62291;47.554;8.504;2024-01-07T08:31:10;33.97;;;15.38;;
73938;SDS011;62291;47.554;8.504;2024-01-07T08:33:36;28.85;;;14.60;;
73938;SDS011;62291;47.554;8.504;2024-01-07T08:36:02;27.15;;;14.43;;
73938;SDS011;62291;47.554;8.504;2024-01-07T08:38:27;25.17;;;14.75;;
73938;SDS011;62291;47.554;8.504;2024-01-07T08:40:53;28.63;;;15.18;;
73938;SDS011;62291;47.554;8.504;2024-01-07T08:43:19;27.35;;;14.85;;
73938;SDS011;62291;47.554;8.504;2024-01-07T08:45:44;24.00;;;13.98;;
73938;SDS011;62291;47.554;8.504;2024-01-07T08:48:10;24.38;;;14.68;;
73938;SDS011;62291;47.554;8.504;2024-01-07T08:50:37;22.30;;;13.43;;
73938;SDS011;62291;47.554;8.504;2024-01-07T08:53:03;20.50;;;12.82;;
73938;SDS011;62291;47.554;8.504;2024-01-07T08:55:29;23.52;;;14.48;;
73938;SDS011;62291;47.554;8.504;2024-01-07T08:57:56;22.33;;;14.20;;
73938;SDS011;62291;47.554;8.504;2024-01-07T09:00:22;19.40;;;12.77;;
73938;SDS011;62291;47.554;8.504;2024-01-07T09:02:51;18.88;;;11.82;;
73938;SDS011;62291;47.554;8.504;2024-01-07T09:05:17;19.33;;;12.90;;
73938;SDS011;62291;47.554;8.504;2024-01-07T09:07:43;21.05;;;13.27;;
73938;SDS011;62291;47.554;8.504;2024-01-07T09:10:08;20.90;;;13.15;;
73938;SDS011;62291;47.554;8.504;2024-01-07T09:12:38;17.75;;;11.68;;
73938;SDS011;62291;47.554;8.504;2024-01-07T09:15:04;16.80;;;10.63;;
73938;SDS011;62291;47.554;8.504;2024-01-07T09:17:36;16.17;;;11.10;;
73938;SDS011;62291;47.554;8.504;2024-01-07T09:20:08;18.15;;;12.00;;
73938;SDS011;62291;47.554;8.504;2024-01-07T09:22:35;17.05;;;11.07;;
73938;SDS011;62291;47.554;8.504;2024-01-07T09:25:01;16.33;;;10.73;;
73938;SDS011;62291;47.554;8.504;2024-01-07T09:27:28;15.82;;;11.10;;
73938;SDS011;62291;47.554;8.504;2024-01-07T09:29:54;16.35;;;11.48;;
73938;SDS011;62291;47.554;8.504;2024-01-07T09:32:20;16.38;;;11.32;;
73938;SDS011;62291;47.554;8.504;2024-01-07T09:34:46;15.45;;;10.95;;
73938;SDS011;62291;47.554;8.504;2024-01-07T09:37:11;15.40;;;10.85;;
73938;SDS011;62291;47.554;8.504;2024-01-07T09:39:40;16.60;;;11.50;;
73938;SDS011;62291;47.554;8.504;2024-01-07T09:42:16;14.80;;;10.07;;
73938;SDS011;62291;47.554;8.504;2024-01-07T09:44:43;16.92;;;11.73;;
73938;SDS011;62291;47.554;8.504;2024-01-07T09:47:13;17.40;;;11.50;;
73938;SDS011;62291;47.554;8.504;2024-01-07T09:49:40;20.03;;;12.23;;
73938;SDS011;62291;47.554;8.504;2024-01-07T09:52:07;18.80;;;11.23;;
73938;SDS011;62291;47.554;8.504;2024-01-07T09:54:37;15.48;;;11.15;;
73938;SDS011;62291;47.554;8.504;2024-01-07T09:57:04;16.45;;;11.15;;
73938;SDS011;62291;47.554;8.504;2024-01-07T09:59:34;15.63;;;10.85;;
73938;SDS011;62291;47.554;8.504;2024-01-07T10:02:04;13.52;;;9.75;;
73938;SDS011;62291;47.554;8.504;2024-01-07T10:04:30;12.15;;;9.40;;
73938;SDS011;62291;47.554;8.504;2024-01-07T10:06:56;13.80;;;8.95;;
73938;SDS011;62291;47.554;8.504;2024-01-07T10:09:22;12.32;;;9.60;;
73938;SDS011;62291;47.554;8.504;2024-01-07T10:11:49;11.63;;;9.00;;
73938;SDS011;62291;47.554;8.504;2024-01-07T10:14:15;11.90;;;8.35;;
73938;SDS011;62291;47.554;8.504;2024-01-07T10:16:40;14.48;;;9.52;;
73938;SDS011;62291;47.554;8.504;2024-01-07T10:19:06;12.18;;;8.35;;
73938;SDS011;62291;47.554;8.504;2024-01-07T10:21:32;11.25;;;7.22;;
73938;SDS011;62291;47.554;8.504;2024-01-07T10:24:11;11.88;;;8.55;;
73938;SDS011;62291;47.554;8.504;2024-01-07T10:26:40;12.88;;;8.60;;
73938;SDS011;62291;47.554;8.504;2024-01-07T10:29:07;11.90;;;8.60;;
73938;SDS011;62291;47.554;8.504;2024-01-07T10:31:38;11.95;;;8.98;;
73938;SDS011;62291;47.554;8.504;2024-01-07T10:34:08;12.07;;;9.55;;
73938;SDS011;62291;47.554;8.504;2024-01-07T10:36:37;11.75;;;8.55;;
73938;SDS011;62291;47.554;8.504;2024-01-07T10:39:05;10.35;;;8.57;;
73938;SDS011;62291;47.554;8.504;2024-01-07T10:41:31;11.88;;;9.02;;
73938;SDS011;62291;47.554;8.504;2024-01-07T10:43:59;11.52;;;8.38;;
73938;SDS011;62291;47.554;8.504;2024-01-07T10:46:25;10.43;;;8.02;;
73938;SDS011;62291;47.554;8.504;2024-01-07T10:48:55;10.55;;;7.70;;
73938;SDS011;62291;47.554;8.504;2024-01-07T10:51:26;7.50;;;5.90;;
73938;SDS011;62291;47.554;8.504;2024-01-07T10:53:53;9.20;;;6.30;;
73938;SDS011;62291;47.554;8.504;2024-01-07T10:56:23;7.07;;;5.75;;
73938;SDS011;62291;47.554;8.504;2024-01-07T10:58:54;9.57;;;6.90;;
73938;SDS011;62291;47.554;8.504;2024-01-07T11:01:21;7.93;;;6.40;;
73938;SDS011;62291;47.554;8.504;2024-01-07T11:09:23;7.85;;;6.47;;
73938;SDS011;62291;47.554;8.504;2024-01-07T11:11:58;9.77;;;6.57;;
73938;SDS011;62291;47.554;8.504;2024-01-07T11:14:40;8.30;;;6.82;;
73938;SDS011;62291;47.554;8.504;2024-01-07T11:17:12;8.23;;;6.68;;
73938;SDS011;62291;47.554;8.504;2024-01-07T11:19:50;9.35;;;7.57;;
73938;SDS011;62291;47.554;8.504;2024-01-07T11:24:59;7.00;;;5.25;;
73938;SDS011;62291;47.554;8.504;2024-01-07T11:27:26;7.07;;;5.72;;
73938;SDS011;62291;47.554;8.504;2024-01-07T11:29:56;5.32;;;4.53;;
73938;SDS011;62291;47.554;8.504;2024-01-07T11:32:29;6.50;;;5.07;;
73938;SDS011;62291;47.554;8.504;2024-01-07T11:34:55;6.60;;;4.90;;
73938;SDS011;62291;47.554;8.504;2024-01-07T11:37:21;8.90;;;5.45;;
73938;SDS011;62291;47.554;8.504;2024-01-07T11:39:48;8.25;;;5.65;;
73938;SDS011;62291;47.554;8.504;2024-01-07T11:42:21;7.00;;;5.78;;
73938;SDS011;62291;47.554;8.504;2024-01-07T11:44:54;7.30;;;5.57;;
73938;SDS011;62291;47.554;8.504;2024-01-07T11:47:20;7.43;;;5.03;;
73938;SDS011;62291;47.554;8.504;2024-01-07T11:49:47;6.97;;;5.43;;
73938;SDS011;62291;47.554;8.504;2024-01-07T11:52:14;7.13;;;5.80;;
73938;SDS011;62291;47.554;8.504;2024-01-07T11:54:40;7.63;;;5.80;;
73938;SDS011;62291;47.554;8.504;2024-01-07T11:57:06;7.60;;;5.70;;
73938;SDS011;62291;47.554;8.504;2024-01-07T11:59:33;9.10;;;5.95;;
73938;SDS011;62291;47.554;8.504;2024-01-07T12:02:02;8.15;;;6.35;;
73938;SDS011;62291;47.554;8.504;2024-01-07T12:04:32;8.60;;;6.28;;
73938;SDS011;62291;47.554;8.504;2024-01-07T12:06:58;7.47;;;5.53;;
73938;SDS011;62291;47.554;8.504;2024-01-07T12:09:26;9.23;;;6.30;;
73938;SDS011;62291;47.554;8.504;2024-01-07T12:11:52;7.53;;;5.90;;
73938;SDS011;62291;47.554;8.504;2024-01-07T12:14:18;10.27;;;7.55;;
73938;SDS011;62291;47.554;8.504;2024-01-07T12:16:44;9.00;;;7.30;;
73938;SDS011;62291;47.554;8.504;2024-01-07T12:19:11;7.60;;;6.40;;
73938;SDS011;62291;47.554;8.504;2024-01-07T12:21:37;7.88;;;6.55;;
73938;SDS011;62291;47.554;8.504;2024-01-07T12:24:03;9.93;;;5.95;;
73938;SDS011;62291;47.554;8.504;2024-01-07T12:26:29;7.18;;;6.00;;
73938;SDS011;62291;47.554;8.504;2024-01-07T12:28:57;9.57;;;7.07;;
73938;SDS011;62291;47.554;8.504;2024-01-07T12:31:32;8.23;;;6.43;;
73938;SDS011;62291;47.554;8.504;2024-01-07T12:33:58;8.27;;;5.95;;
73938;SDS011;62291;47.554;8.504;2024-01-07T12:36:25;8.10;;;6.10;;
73938;SDS011;62291;47.554;8.504;2024-01-07T12:38:51;7.20;;;6.03;;
73938;SDS011;62291;47.554;8.504;2024-01-07T12:41:21;8.18;;;6.38;;
73938;SDS011;62291;47.554;8.504;2024-01-07T12:43:48;9.63;;;6.53;;
73938;SDS011;62291;47.554;8.504;2024-01-07T12:46:14;8.80;;;6.82;;
73938;SDS011;62291;47.554;8.504;2024-01-07T12:48:39;9.48;;;6.97;;
73938;SDS011;62291;47.554;8.504;2024-01-07T12:51:05;8.40;;;6.90;;
73938;SDS011;62291;47.554;8.504;2024-01-07T12:53:31;7.63;;;5.88;;
73938;SDS011;62291;47.554;8.504;2024-01-07T12:55:57;9.38;;;7.53;;
73938;SDS011;62291;47.554;8.504;2024-01-07T12:58:22;8.63;;;6.30;;
73938;SDS011;62291;47.554;8.504;2024-01-07T13:00:48;9.38;;;6.63;;
73938;SDS011;62291;47.554;8.504;2024-01-07T13:03:14;9.90;;;7.28;;
73938;SDS011;62291;47.554;8.504;2024-01-07T13:05:46;9.18;;;6.85;;
73938;SDS011;62291;47.554;8.504;2024-01-07T13:08:14;9.27;;;6.78;;
73938;SDS011;62291;47.554;8.504;2024-01-07T13:10:40;9.80;;;7.25;;
73938;SDS011;62291;47.554;8.504;2024-01-07T13:13:06;7.88;;;5.80;;
73938;SDS011;62291;47.554;8.504;2024-01-07T13:15:32;8.57;;;5.85;;
73938;SDS011;62291;47.554;8.504;2024-01-07T13:17:57;10.50;;;6.97;;
73938;SDS011;62291;47.554;8.504;2024-01-07T13:20:23;9.32;;;6.38;;
73938;SDS011;62291;47.554;8.504;2024-01-07T13:22:49;8.30;;;6.70;;
73938;SDS011;62291;47.554;8.504;2024-01-07T13:25:15;10.00;;;6.80;;
73938;SDS011;62291;47.554;8.504;2024-01-07T13:27:41;8.23;;;6.10;;
73938;SDS011;62291;47.554;8.504;2024-01-07T13:30:09;7.28;;;5.38;;
73938;SDS011;62291;47.554;8.504;2024-01-07T13:32:35;7.70;;;5.43;;
73938;SDS011;62291;47.554;8.504;2024-01-07T13:35:04;7.63;;;4.40;;
73938;SDS011;62291;47.554;8.504;2024-01-07T13:37:31;8.55;;;5.72;;
73938;SDS011;62291;47.554;8.504;2024-01-07T13:39:56;8.75;;;6.47;;
73938;SDS011;62291;47.554;8.504;2024-01-07T13:42:22;10.35;;;6.80;;
73938;SDS011;62291;47.554;8.504;2024-01-07T13:44:48;10.43;;;5.45;;
73938;SDS011;62291;47.554;8.504;2024-01-07T13:47:14;8.18;;;6.10;;
73938;SDS011;62291;47.554;8.504;2024-01-07T13:49:40;9.38;;;6.00;;
73938;SDS011;62291;47.554;8.504;2024-01-07T13:52:06;9.35;;;6.82;;
73938;SDS011;62291;47.554;8.504;2024-01-07T13:54:32;8.45;;;6.43;;
73938;SDS011;62291;47.554;8.504;2024-01-07T13:56:57;10.32;;;7.07;;
73938;SDS011;62291;47.554;8.504;2024-01-07T13:59:24;11.07;;;7.10;;
73938;SDS011;62291;47.554;8.504;2024-01-07T14:01:51;9.85;;;6.97;;
73938;SDS011;62291;47.554;8.504;2024-01-07T14:04:17;9.77;;;6.00;;
73938;SDS011;62291;47.554;8.504;2024-01-07T14:06:42;10.40;;;6.95;;
73938;SDS011;62291;47.554;8.504;2024-01-07T14:09:09;11.95;;;8.25;;
73938;SDS011;62291;47.554;8.504;2024-01-07T14:11:35;11.15;;;8.25;;
73938;SDS011;62291;47.554;8.504;2024-01-07T14:14:00;8.85;;;5.80;;
73938;SDS011;62291;47.554;8.504;2024-01-07T14:16:26;10.65;;;7.63;;
73938;SDS011;62291;47.554;8.504;2024-01-07T14:18:52;14.23;;;8.90;;
73938;SDS011;62291;47.554;8.504;2024-01-07T14:21:18;11.75;;;7.78;;
73938;SDS011;62291;47.554;8.504;2024-01-07T14:23:44;10.27;;;7.72;;
73938;SDS011;62291;47.554;8.504;2024-01-07T14:26:10;9.88;;;6.30;;
73938;SDS011;62291;47.554;8.504;2024-01-07T14:28:36;12.35;;;7.90;;
73938;SDS011;62291;47.554;8.504;2024-01-07T14:31:01;11.52;;;7.50;;
73938;SDS011;62291;47.554;8.504;2024-01-07T14:33:28;11.63;;;8.20;;
73938;SDS011;62291;47.554;8.504;2024-01-07T14:35:54;11.75;;;7.95;;
73938;SDS011;62291;47.554;8.504;2024-01-07T14:38:20;10.63;;;7.55;;